Time;durP1;ratioP1;P1;durP2;ratioP2;P2;SDS_P1;SDS_P2;PMS_P1;PMS_P2;Temp;Humidity;BMP_temperature;BMP_pressure;BME280_temperature;BME280_humidity;BME280_pressure;Samples;Min_cycle;Max_cycle;Signal;HPM_P1;HPM_P2
2024/04/06 00:00:16;;;;;;;2.95;1.40;;;;;;;16.33;65.38;98158.88;5025972;28;20040;-76
2024/04/06 00:02:41;;;;;;;3.45;1.50;;;;;;;16.32;65.47;98159.97;5019610;28;20036;-76
2024/04/06 00:05:09;;;;;;;2.47;1.50;;;;;;;16.37;65.69;98171.63;5007800;28;20041;-75
2024/04/06 00:07:35;;;;;;;2.90;1.35;;;;;;;16.39;65.72;98169.44;5017027;28;20450;-76
2024/04/06 00:10:00;;;;;;;4.20;1.88;;;;;;;16.22;65.53;98147.25;5030917;28;20044;-76
2024/04/06 00:12:26;;;;;;;2.78;1.60;;;;;;;16.24;65.33;98155.16;5033364;28;20052;-76
2024/04/06 00:14:51;;;;;;;4.57;1.88;;;;;;;16.27;65.05;98157.28;5040165;28;20037;-76
2024/04/06 00:17:16;;;;;;;1.75;1.23;;;;;;;16.35;65.07;98162.13;5028574;28;20033;-76
2024/04/06 00:19:42;;;;;;;2.85;1.58;;;;;;;16.34;64.84;98155.88;5042783;28;20473;-76
2024/04/06 00:22:07;;;;;;;2.35;1.40;;;;;;;16.32;64.73;98158.06;5032929;28;20074;-75
2024/04/06 00:24:32;;;;;;;2.97;1.40;;;;;;;16.38;64.72;98173.22;5051510;28;20034;-76
2024/04/06 00:26:58;;;;;;;4.13;1.60;;;;;;;16.02;64.70;98120.22;5027805;28;20040;-76
2024/04/06 00:29:24;;;;;;;2.97;1.73;;;;;;;16.40;64.43;98164.81;5029331;28;20519;-76
2024/04/06 00:31:49;;;;;;;2.47;1.55;;;;;;;16.40;64.73;98165.63;5040498;28;20030;-75
2024/04/06 00:34:14;;;;;;;2.50;1.50;;;;;;;16.34;64.09;98172.19;5000242;28;20040;-75
2024/04/06 00:36:42;;;;;;;2.78;1.35;;;;;;;16.37;64.13;98166.19;5027860;28;20060;-75
2024/04/06 00:39:07;;;;;;;3.25;1.50;;;;;;;16.35;64.26;98160.22;5021117;28;20061;-76
2024/04/06 00:41:33;;;;;;;2.78;1.60;;;;;;;16.40;64.61;98165.63;5048413;28;20126;-76
2024/04/06 00:43:58;;;;;;;3.78;1.52;;;;;;;16.19;64.30;98141.59;5043451;28;20040;-76
2024/04/06 00:46:23;;;;;;;2.80;1.40;;;;;;;16.37;64.42;98178.97;5014322;28;20022;-75
2024/04/06 00:48:49;;;;;;;5.60;1.70;;;;;;;16.33;64.49;98165.13;5025510;28;20038;-75
2024/04/06 00:51:14;;;;;;;3.55;1.83;;;;;;;16.32;64.36;98173.56;5023878;28;20098;-76
2024/04/06 00:53:40;;;;;;;4.45;1.40;;;;;;;16.33;64.43;98176.00;5056563;28;20020;-76
2024/04/06 00:56:06;;;;;;;2.85;1.40;;;;;;;16.29;64.19;98169.50;5021381;28;20036;-76
2024/04/06 00:58:31;;;;;;;2.45;1.50;;;;;;;16.31;64.61;98175.44;5037774;28;20037;-76
2024/04/06 01:00:57;;;;;;;2.28;1.60;;;;;;;16.34;64.19;98182.22;5045511;28;20025;-76
2024/04/06 01:03:22;;;;;;;6.00;1.80;;;;;;;16.18;64.67;98165.22;5026650;28;20041;-76
2024/04/06 01:05:47;;;;;;;2.88;1.40;;;;;;;16.13;64.33;98154.38;5046255;28;20037;-77
2024/04/06 01:08:13;;;;;;;2.95;1.50;;;;;;;16.24;64.61;98169.53;5006520;28;20034;-76
2024/04/06 01:10:39;;;;;;;2.63;1.60;;;;;;;16.25;64.44;98179.31;5009247;28;20079;-76
2024/04/06 01:13:04;;;;;;;2.60;1.50;;;;;;;16.22;65.14;98179.84;5006028;28;20565;-76
2024/04/06 01:15:32;;;;;;;5.25;1.63;;;;;;;16.00;64.68;98148.75;5047094;28;20040;-75
2024/04/06 01:17:58;;;;;;;2.30;1.75;;;;;;;16.19;64.62;98168.75;5010140;28;20403;-76
2024/04/06 01:20:25;;;;;;;3.17;1.42;;;;;;;16.21;64.78;98178.25;5030014;28;20025;-76
2024/04/06 01:22:51;;;;;;;5.47;1.60;;;;;;;16.23;64.36;98170.63;5013067;28;20036;-76
2024/04/06 01:25:16;;;;;;;4.15;1.70;;;;;;;16.28;64.47;98189.63;5031586;28;20494;-77
2024/04/06 01:27:42;;;;;;;4.38;1.58;;;;;;;16.31;64.29;98186.31;5018477;28;20492;-77
2024/04/06 01:30:08;;;;;;;2.50;1.42;;;;;;;16.29;64.35;98185.00;5009901;28;20024;-76
2024/04/06 01:32:33;;;;;;;3.28;1.60;;;;;;;16.33;64.10;98192.31;5001926;28;20091;-75
2024/04/06 01:34:59;;;;;;;3.83;1.50;;;;;;;16.33;64.17;98186.88;5045512;28;20024;-75
2024/04/06 01:37:25;;;;;;;3.58;1.52;;;;;;;16.36;64.28;98191.72;5030383;28;20481;-75
2024/04/06 01:39:50;;;;;;;3.08;1.58;;;;;;;16.28;64.57;98183.38;5037234;28;20045;-75
2024/04/06 01:42:16;;;;;;;3.83;1.60;;;;;;;16.24;64.40;98176.88;5045991;23;20046;-72
2024/04/06 01:44:41;;;;;;;5.00;1.35;;;;;;;16.31;64.53;98205.34;4999148;28;20488;-72
2024/04/06 01:47:07;;;;;;;4.05;1.63;;;;;;;16.32;64.59;98196.13;5009994;28;20037;-72
2024/04/06 01:49:32;;;;;;;3.08;1.33;;;;;;;16.26;64.38;98191.81;5013446;28;20103;-72
2024/04/06 01:51:58;;;;;;;2.40;1.60;;;;;;;16.25;65.01;98189.34;5011199;28;20056;-73
2024/04/06 01:54:23;;;;;;;2.25;1.48;;;;;;;16.21;65.08;98194.56;5028086;28;20031;-73
2024/04/06 01:56:50;;;;;;;2.50;1.95;;;;;;;16.23;65.44;98192.38;5010058;28;20080;-73
2024/04/06 01:59:15;;;;;;;2.40;1.80;;;;;;;16.20;65.65;98184.78;5026265;28;20030;-73
2024/04/06 02:01:43;;;;;;;2.83;1.70;;;;;;;16.18;66.03;98178.81;5024866;28;20053;-73
2024/04/06 02:04:09;;;;;;;1.70;1.60;;;;;;;16.19;66.66;98185.06;5014941;28;20032;-72
2024/04/06 02:06:34;;;;;;;4.68;1.70;;;;;;;16.22;67.16;98198.88;5012166;28;20436;-72
2024/04/06 02:09:00;;;;;;;3.58;1.70;;;;;;;16.21;67.10;98189.13;5019005;28;20025;-72
2024/04/06 02:11:25;;;;;;;2.28;1.80;;;;;;;16.18;67.37;98197.00;5033928;28;20037;-72
2024/04/06 02:13:50;;;;;;;2.72;1.60;;;;;;;16.09;66.45;98185.94;5037837;28;20025;-71
2024/04/06 02:16:16;;;;;;;3.35;1.60;;;;;;;16.09;66.83;98185.94;5034117;28;20037;-72
2024/04/06 02:18:42;;;;;;;3.45;1.65;;;;;;;16.00;66.89;98175.91;4997363;28;20029;-73
2024/04/06 02:21:08;;;;;;;2.35;1.65;;;;;;;15.93;66.79;98186.28;5016039;28;20034;-72
2024/04/06 02:23:33;;;;;;;7.65;1.90;;;;;;;15.88;67.40;98196.09;5014134;28;20480;-72
2024/04/06 02:25:59;;;;;;;2.85;1.75;;;;;;;15.93;67.63;98197.16;5008661;28;20086;-72
2024/04/06 02:28:24;;;;;;;6.65;2.25;;;;;;;15.91;68.17;98189.28;5014934;28;20048;-72
2024/04/06 02:30:49;;;;;;;4.20;2.00;;;;;;;15.90;67.94;98195.78;4998070;28;20087;-72
2024/04/06 02:33:15;;;;;;;3.97;1.70;;;;;;;15.89;67.79;98186.81;5029424;28;20494;-72
2024/04/06 02:35:40;;;;;;;2.75;1.95;;;;;;;15.91;67.61;98189.28;5030105;28;20030;-72
2024/04/06 02:38:06;;;;;;;2.47;1.80;;;;;;;15.93;67.19;98192.53;5002117;28;20486;-72
2024/04/06 02:40:31;;;;;;;3.47;2.00;;;;;;;15.87;66.80;98182.75;5034971;28;20104;-73
2024/04/06 02:42:56;;;;;;;2.95;2.00;;;;;;;15.95;66.57;98189.53;5008285;28;20088;-72
2024/04/06 02:45:22;;;;;;;3.97;2.05;;;;;;;15.95;66.38;98192.25;5023075;28;20042;-72
2024/04/06 02:47:47;;;;;;;4.18;2.00;;;;;;;16.01;66.11;98189.22;5012390;28;20365;-72
2024/04/06 02:50:12;;;;;;;2.80;2.22;;;;;;;15.98;65.80;98173.50;5020393;28;20046;-72
2024/04/06 02:52:38;;;;;;;4.05;2.00;;;;;;;16.07;65.83;98182.69;4995712;28;20237;-72
2024/04/06 02:55:06;;;;;;;2.63;1.92;;;;;;;16.10;65.79;98173.97;5004156;28;20040;-73
2024/04/06 02:57:32;;;;;;;2.85;1.83;;;;;;;16.03;65.65;98168.03;4997382;28;20032;-72
2024/04/06 02:59:57;;;;;;;4.15;1.67;;;;;;;16.10;65.38;98179.41;5003896;28;20037;-72
2024/04/06 03:02:24;;;;;;;2.67;1.85;;;;;;;16.06;65.17;98170.19;4997990;28;20033;-72
2024/04/06 03:04:50;;;;;;;2.92;1.80;;;;;;;16.13;65.27;98186.97;4989431;28;20148;-72
2024/04/06 03:07:15;;;;;;;4.88;2.10;;;;;;;16.15;65.37;98171.22;5012746;28;20038;-72
2024/04/06 03:09:40;;;;;;;4.38;2.10;;;;;;;16.09;65.19;98153.31;4988185;28;20045;-73
2024/04/06 03:12:06;;;;;;;2.53;1.77;;;;;;;16.10;65.10;98163.13;5001717;28;20025;-72
2024/04/06 03:14:34;;;;;;;2.47;1.98;;;;;;;16.06;65.04;98148.44;4992694;28;20125;-73
2024/04/06 03:16:59;;;;;;;3.35;2.28;;;;;;;16.06;65.05;98159.31;5019487;28;20026;-72
2024/04/06 03:19:25;;;;;;;4.75;2.17;;;;;;;16.14;65.08;98176.94;4993906;28;20088;-73
2024/04/06 03:21:51;;;;;;;3.05;1.98;;;;;;;16.16;64.81;98182.91;5008722;28;20025;-73
2024/04/06 03:24:16;;;;;;;3.65;2.20;;;;;;;16.14;64.96;98188.63;4991691;28;20117;-73
2024/04/06 03:26:43;;;;;;;2.53;1.70;;;;;;;16.05;64.80;98182.16;5019782;28;20025;-72
2024/04/06 03:29:08;;;;;;;3.78;2.03;;;;;;;16.12;64.86;98192.72;4994496;28;20033;-73
2024/04/06 03:31:33;;;;;;;5.32;2.03;;;;;;;16.13;65.24;98194.31;5007374;28;20072;-71
2024/04/06 03:33:59;;;;;;;4.05;2.10;;;;;;;16.12;65.37;98198.97;5026418;28;20037;-71
2024/04/06 03:36:24;;;;;;;6.93;2.20;;;;;;;16.12;65.37;98192.72;5002017;28;20029;-71
2024/04/06 03:38:49;;;;;;;6.75;2.13;;;;;;;16.11;65.18;98193.78;5010381;28;20526;-70
2024/04/06 03:41:15;;;;;;;3.80;2.15;;;;;;;16.10;65.15;98194.91;5005305;28;20029;-71
2024/04/06 03:43:40;;;;;;;4.15;2.47;;;;;;;16.11;65.29;98194.59;5041909;28;20171;-70
2024/04/06 03:46:06;;;;;;;2.75;2.03;;;;;;;16.07;65.24;98198.97;5011015;28;20030;-72
2024/04/06 03:48:32;;;;;;;4.20;2.38;;;;;;;16.07;65.43;98193.53;4995156;28;20036;-72
2024/04/06 03:50:58;;;;;;;4.57;2.17;;;;;;;16.08;65.61;98195.16;5038446;28;20036;-71
2024/04/06 03:53:31;;;;;;;4.15;2.28;;;;;;;16.09;65.63;98185.94;5020687;28;20037;-72
2024/04/06 03:55:56;;;;;;;5.10;2.45;;;;;;;16.09;65.70;98195.97;5015158;28;20481;-71
2024/04/06 03:58:21;;;;;;;4.50;2.30;;;;;;;15.96;65.78;98181.13;5021704;28;20120;-71
2024/04/06 04:00:47;;;;;;;3.60;1.85;;;;;;;15.99;65.61;98185.97;5045022;28;20029;-72
2024/04/06 04:03:12;;;;;;;5.03;2.20;;;;;;;15.95;65.88;98190.34;5011514;28;20017;-73
2024/04/06 04:05:38;;;;;;;3.65;2.00;;;;;;;15.93;66.48;98178.94;5010883;28;20396;-71
2024/04/06 04:08:03;;;;;;;4.85;2.30;;;;;;;15.92;66.04;98180.03;5032491;28;20032;-71
2024/04/06 04:10:29;;;;;;;5.00;2.13;;;;;;;15.91;66.92;98186.56;5035052;28;20571;-72
2024/04/06 04:12:54;;;;;;;2.90;2.10;;;;;;;15.89;66.95;98186.03;5016585;28;20108;-72
2024/04/06 04:15:19;;;;;;;3.47;2.10;;;;;;;15.79;67.54;98192.31;5029366;28;20033;-72
2024/04/06 04:17:45;;;;;;;4.07;2.78;;;;;;;15.64;68.54;98196.97;5022566;28;20029;-71
2024/04/06 04:20:10;;;;;;;3.72;2.30;;;;;;;15.60;69.14;98193.19;5035277;28;20029;-72
2024/04/06 04:22:35;;;;;;;3.83;2.30;;;;;;;15.60;69.32;98204.88;5030684;28;20506;-72
2024/04/06 04:25:01;;;;;;;4.10;2.35;;;;;;;15.66;68.81;98203.75;5016523;28;20064;-73
2024/04/06 04:27:26;;;;;;;6.35;2.50;;;;;;;15.63;68.66;98208.94;5006380;28;20013;-73
2024/04/06 04:29:52;;;;;;;5.85;2.45;;;;;;;15.68;68.17;98217.88;5021432;28;20125;-73
2024/04/06 04:32:17;;;;;;;3.95;2.47;;;;;;;15.68;68.03;98227.94;5005275;28;20025;-72
2024/04/06 04:34:42;;;;;;;6.63;2.42;;;;;;;15.67;67.55;98220.88;5004732;28;20034;-72
2024/04/06 04:37:08;;;;;;;2.83;2.42;;;;;;;15.67;67.42;98216.25;5003619;28;20030;-74
2024/04/06 04:39:33;;;;;;;5.78;2.13;;;;;;;15.78;66.96;98233.31;5008818;28;20044;-73
2024/04/06 04:41:59;;;;;;;3.10;2.30;;;;;;;15.76;66.88;98235.50;5007592;28;20495;-73
2024/04/06 04:44:24;;;;;;;3.95;2.45;;;;;;;15.75;66.63;98240.09;5032287;28;20037;-73
2024/04/06 04:46:50;;;;;;;4.00;1.90;;;;;;;15.78;66.28;98230.59;5028905;28;20072;-73
2024/04/06 04:49:15;;;;;;;3.90;2.20;;;;;;;15.80;66.95;98231.94;5010326;28;20037;-72
2024/04/06 04:51:41;;;;;;;3.67;3.17;;;;;;;15.85;66.19;98240.09;4981697;28;20394;-72
2024/04/06 04:54:06;;;;;;;4.72;2.58;;;;;;;15.79;65.93;98226.81;5011607;28;20493;-73
2024/04/06 04:56:32;;;;;;;6.35;2.58;;;;;;;15.90;65.91;98252.84;5018801;28;20453;-73
2024/04/06 04:58:57;;;;;;;2.83;2.30;;;;;;;15.85;65.58;98233.84;4986813;28;20034;-73
2024/04/06 05:01:22;;;;;;;3.97;2.00;;;;;;;15.82;65.83;98237.13;5005032;28;20473;-74
2024/04/06 05:03:48;;;;;;;3.58;2.35;;;;;;;15.76;65.84;98214.59;5016067;28;20044;-74
2024/04/06 05:06:13;;;;;;;4.43;2.13;;;;;;;15.94;65.57;98234.88;5009529;28;20042;-72
2024/04/06 05:08:38;;;;;;;4.22;2.10;;;;;;;15.94;65.70;98229.44;4973959;28;20114;-73
2024/04/06 05:11:04;;;;;;;5.20;2.60;;;;;;;15.87;65.93;98212.63;5007195;28;20029;-72
2024/04/06 05:13:29;;;;;;;3.05;2.60;;;;;;;15.96;65.51;98227.28;5000115;28;20037;-72
2024/04/06 05:15:55;;;;;;;3.80;2.28;;;;;;;15.98;65.42;98233.25;4998815;28;20037;-72
2024/04/06 05:18:21;;;;;;;4.28;2.67;;;;;;;15.92;65.59;98237.06;5014917;28;20477;-72
2024/04/06 05:20:57;;;;;;;4.80;2.72;;;;;;;15.94;65.31;98234.88;4966055;28;20528;-73
2024/04/06 05:23:23;;;;;;;6.53;4.15;;;;;;;15.99;64.93;98247.63;5015160;28;20489;-70
2024/04/06 05:25:50;;;;;;;27.95;19.58;;;;;;;16.01;65.24;98248.19;5018724;28;20033;-72
2024/04/06 05:28:16;;;;;;;40.85;27.52;;;;;;;15.98;65.30;98249.56;4984733;28;20069;-73
2024/04/06 05:30:46;;;;;;;175.45;108.30;;;;;;;15.94;65.28;98248.47;4989477;28;20438;-74
2024/04/06 05:33:15;;;;;;;43.78;27.50;;;;;;;15.99;65.12;98251.16;5011433;28;20076;-74
2024/04/06 05:35:43;;;;;;;71.88;41.72;;;;;;;15.95;65.08;98265.59;5009984;28;20032;-71
2024/04/06 05:38:09;;;;;;;80.00;47.58;;;;;;;15.98;65.26;98268.56;5015531;28;20116;-72
2024/04/06 05:40:38;;;;;;;268.75;149.65;;;;;;;15.96;65.39;98272.66;5011569;28;20106;-72
2024/04/06 05:43:04;;;;;;;216.93;118.43;;;;;;;15.93;65.68;98271.31;5020379;28;20032;-72
2024/04/06 05:45:30;;;;;;;121.53;62.63;;;;;;;15.94;65.78;98259.31;5005892;28;20044;-73
2024/04/06 05:47:56;;;;;;;202.85;104.85;;;;;;;15.99;65.37;98277.50;5009626;28;20033;-72
2024/04/06 05:50:21;;;;;;;105.03;57.03;;;;;;;16.01;65.32;98276.16;5033681;28;20151;-71
2024/04/06 05:52:47;;;;;;;33.15;19.92;;;;;;;15.96;65.25;98262.59;5028363;28;20112;-71
2024/04/06 05:55:12;;;;;;;43.42;29.63;;;;;;;16.06;65.41;98278.84;4983919;28;20099;-72
2024/04/06 05:57:37;;;;;;;14.90;12.05;;;;;;;16.03;65.18;98271.28;4998568;28;20057;-71
2024/04/06 06:00:03;;;;;;;10.07;7.10;;;;;;;16.19;65.57;98281.00;5012174;28;20526;-72
2024/04/06 06:02:30;;;;;;;5.55;3.60;;;;;;;16.18;65.35;98281.25;5031416;28;20037;-72
2024/04/06 06:04:55;;;;;;;4.45;3.00;;;;;;;16.22;65.10;98272.25;5015831;28;20022;-71
2024/04/06 06:07:20;;;;;;;6.40;3.17;;;;;;;16.18;65.12;98260.31;5017835;28;20075;-72
2024/04/06 06:09:46;;;;;;;3.85;3.15;;;;;;;16.41;64.88;98281.41;5033957;28;20556;-71
2024/04/06 06:12:11;;;;;;;3.90;2.90;;;;;;;16.44;64.77;98286.31;5035488;28;20079;-72
2024/04/06 06:14:37;;;;;;;3.42;2.17;;;;;;;16.47;64.51;98284.94;5003627;28;20064;-71
2024/04/06 06:17:03;;;;;;;4.45;2.20;;;;;;;16.56;64.34;98284.09;4998017;28;20511;-72
2024/04/06 06:19:28;;;;;;;4.15;2.22;;;;;;;16.61;64.16;98280.53;5024439;28;20057;-72
2024/04/06 06:21:54;;;;;;;5.47;2.50;;;;;;;16.66;64.05;98282.41;4987550;28;20056;-71
2024/04/06 06:24:19;;;;;;;3.35;2.05;;;;;;;16.71;63.67;98279.66;5007406;28;20036;-72
2024/04/06 06:26:44;;;;;;;3.90;2.42;;;;;;;16.84;63.45;98285.28;4995329;28;20532;-71
2024/04/06 06:29:10;;;;;;;6.78;2.80;;;;;;;16.85;63.54;98275.22;5029704;28;20013;-72
2024/04/06 06:31:35;;;;;;;4.18;2.55;;;;;;;17.02;62.77;98281.88;5004325;28;20480;-72
2024/04/06 06:34:00;;;;;;;3.40;2.40;;;;;;;17.01;62.69;98265.84;5010980;28;20022;-73
2024/04/06 06:36:26;;;;;;;4.20;2.35;;;;;;;17.11;62.70;98273.91;5013681;28;20030;-71
2024/04/06 06:38:51;;;;;;;4.07;2.40;;;;;;;17.21;62.35;98290.16;5037926;28;20366;-71
2024/04/06 06:41:16;;;;;;;4.03;2.20;;;;;;;17.26;61.82;98271.06;4994300;28;20038;-72
2024/04/06 06:43:42;;;;;;;4.95;1.98;;;;;;;17.33;61.71;98271.56;5031791;28;20479;-71
2024/04/06 06:46:07;;;;;;;4.20;2.40;;;;;;;17.45;61.92;98280.16;5011297;28;20037;-72
2024/04/06 06:48:33;;;;;;;3.50;1.90;;;;;;;17.50;61.17;98271.97;5004494;28;20017;-72
2024/04/06 06:50:58;;;;;;;5.88;1.98;;;;;;;17.63;61.57;98275.94;5011179;28;20491;-71
2024/04/06 06:53:23;;;;;;;4.15;2.40;;;;;;;17.66;61.48;98270.72;5028220;28;20028;-72
2024/04/06 06:55:49;;;;;;;3.78;1.92;;;;;;;17.78;61.28;98273.84;5035019;28;20041;-72
2024/04/06 06:58:14;;;;;;;2.67;1.92;;;;;;;17.88;60.68;98283.81;5032021;28;20388;-71
2024/04/06 07:00:45;;;;;;;5.45;2.47;;;;;;;17.97;60.66;98276.63;4994903;28;20068;-72
2024/04/06 07:03:10;;;;;;;2.90;1.95;;;;;;;18.00;60.39;98272.53;5015362;28;20041;-71
2024/04/06 07:05:36;;;;;;;5.95;2.03;;;;;;;18.10;60.14;98264.25;5040204;28;20071;-71
2024/04/06 07:08:01;;;;;;;3.80;1.80;;;;;;;18.14;60.46;98265.28;5011841;28;20040;-71
2024/04/06 07:10:27;;;;;;;3.58;2.17;;;;;;;18.26;60.39;98271.94;5016415;28;20033;-73
2024/04/06 07:12:53;;;;;;;4.53;2.17;;;;;;;18.34;59.81;98275.94;5011258;28;20152;-71
2024/04/06 07:15:18;;;;;;;3.78;1.80;;;;;;;18.34;59.08;98268.53;5012648;28;20148;-71
2024/04/06 07:17:44;;;;;;;4.88;1.98;;;;;;;18.45;58.51;98282.88;5012851;28;20507;-73
2024/04/06 07:20:10;;;;;;;7.55;2.30;;;;;;;18.57;58.66;98280.56;5015622;28;20112;-73
2024/04/06 07:22:35;;;;;;;3.90;2.20;;;;;;;18.63;58.62;98273.94;5019077;28;20037;-71
2024/04/06 07:25:01;;;;;;;4.80;2.20;;;;;;;18.70;57.71;98279.81;4991436;28;20388;-71
2024/04/06 07:27:26;;;;;;;7.43;3.47;;;;;;;18.79;57.20;98279.97;5007932;28;20041;-72
2024/04/06 07:29:51;;;;;;;3.95;2.30;;;;;;;18.79;57.20;98277.25;5015868;28;20029;-71
2024/04/06 07:32:17;;;;;;;7.18;2.78;;;;;;;18.82;57.19;98269.28;5030867;28;20039;-72
2024/04/06 07:34:42;;;;;;;6.68;3.20;;;;;;;19.01;57.08;98294.66;5021648;28;20486;-71
2024/04/06 07:37:07;;;;;;;6.63;2.70;;;;;;;19.08;56.42;98292.38;5003715;28;20084;-71
2024/04/06 07:39:33;;;;;;;13.20;5.95;;;;;;;19.12;56.19;98293.38;5041128;28;20032;-72
2024/04/06 07:41:58;;;;;;;7.05;3.95;;;;;;;19.22;56.50;98292.41;5035303;23;20033;-76
2024/04/06 07:44:24;;;;;;;4.80;3.00;;;;;;;19.30;56.27;98289.81;5053813;28;20044;-76
2024/04/06 07:46:49;;;;;;;8.77;3.58;;;;;;;19.33;56.17;98274.75;5005574;28;20049;-76
2024/04/06 07:49:14;;;;;;;46.88;16.25;;;;;;;19.29;56.49;98260.88;4995830;28;20025;-76
2024/04/06 07:51:42;;;;;;;55.22;19.60;;;;;;;19.45;57.13;98269.66;5021878;28;20047;-76
2024/04/06 07:54:07;;;;;;;11.50;4.93;;;;;;;19.57;56.71;98283.66;5017048;28;20492;-76
2024/04/06 07:56:33;;;;;;;6.65;2.85;;;;;;;19.67;56.92;98290.88;5028452;28;20155;-76
2024/04/06 07:58:58;;;;;;;4.78;2.40;;;;;;;19.76;56.05;98297.25;4999853;28;21027;-77
2024/04/06 08:01:23;;;;;;;4.32;2.35;;;;;;;19.72;56.36;98285.31;5002186;28;20128;-76
2024/04/06 08:03:49;;;;;;;4.32;2.75;;;;;;;19.82;56.07;98290.56;5032054;28;20396;-76
2024/04/06 08:06:16;;;;;;;4.05;2.30;;;;;;;19.76;55.63;98272.66;5004540;28;20048;-77
2024/04/06 08:08:43;;;;;;;2.63;1.80;;;;;;;19.91;55.33;98283.28;5022209;28;20033;-77
2024/04/06 08:11:09;;;;;;;3.60;2.13;;;;;;;20.06;55.20;98293.94;5009711;28;20087;-76
2024/04/06 08:13:34;;;;;;;4.10;2.80;;;;;;;20.05;54.99;98289.56;5025363;28;20443;-76
2024/04/06 08:15:59;;;;;;;4.88;2.70;;;;;;;20.09;54.86;98285.16;4999682;28;20477;-77
2024/04/06 08:18:25;;;;;;;3.83;2.30;;;;;;;19.96;54.73;98273.06;5001311;28;20059;-76
2024/04/06 08:20:50;;;;;;;5.32;1.98;;;;;;;20.17;55.31;98284.41;5011581;28;20447;-77
2024/04/06 08:23:17;;;;;;;3.47;2.17;;;;;;;20.19;55.49;98290.38;5000331;28;20108;-76
2024/04/06 08:25:44;;;;;;;4.45;2.17;;;;;;;20.35;55.72;98286.25;5017321;28;20481;-76
2024/04/06 08:28:09;;;;;;;3.88;1.80;;;;;;;20.40;56.45;98283.41;4987213;28;20025;-76
2024/04/06 08:30:34;;;;;;;3.05;2.10;;;;;;;20.55;55.83;98288.59;5015333;28;20034;-76
2024/04/06 08:33:00;;;;;;;3.40;2.00;;;;;;;20.65;55.35;98285.59;5011578;28;20468;-77
2024/04/06 08:35:25;;;;;;;3.08;2.03;;;;;;;20.67;54.31;98277.94;5001182;28;20121;-77
2024/04/06 08:37:51;;;;;;;4.28;1.98;;;;;;;20.64;53.16;98273.06;4978326;28;20026;-76
2024/04/06 08:40:16;;;;;;;4.05;2.10;;;;;;;20.75;53.94;98286.53;5001883;28;20033;-76
2024/04/06 08:42:43;;;;;;;4.40;1.88;;;;;;;20.85;53.68;98289.84;5001791;28;20491;-77
2024/04/06 08:45:10;;;;;;;4.45;2.05;;;;;;;20.67;52.38;98297.09;5011603;28;20095;-77
2024/04/06 08:47:36;;;;;;;4.45;2.47;;;;;;;20.79;53.14;98282.03;5008335;28;20534;-76
2024/04/06 08:50:11;;;;;;;3.00;1.80;;;;;;;20.85;52.84;98289.84;5018451;28;20497;-76
2024/04/06 08:52:37;;;;;;;3.72;1.70;;;;;;;20.92;51.72;98300.34;5000425;28;20045;-79
2024/04/06 08:55:03;;;;;;;3.70;1.92;;;;;;;20.91;52.61;98302.28;5006817;28;20115;-77
2024/04/06 08:57:40;;;;;;;5.30;2.22;;;;;;;21.03;52.13;98294.34;5003485;28;20030;-77
2024/04/06 09:00:07;;;;;;;6.80;2.90;;;;;;;21.04;52.45;98295.16;4999104;28;20034;-76
2024/04/06 09:02:33;;;;;;;2.65;1.83;;;;;;;21.06;53.73;98299.22;5011786;28;20033;-75
2024/04/06 09:04:58;;;;;;;5.75;2.65;;;;;;;21.17;54.53;98305.25;5010410;28;20033;-76
2024/04/06 09:07:24;;;;;;;2.50;2.30;;;;;;;21.28;53.90;98301.19;4992305;28;20048;-77
2024/04/06 09:09:50;;;;;;;4.72;2.20;;;;;;;21.28;53.83;98292.97;5015966;28;20041;-78
2024/04/06 09:12:15;;;;;;;5.80;2.08;;;;;;;21.35;52.95;98293.34;5019089;28;20480;-78
2024/04/06 09:14:42;;;;;;;3.50;2.10;;;;;;;21.22;52.84;98275.81;5003832;28;20041;-78
2024/04/06 09:17:07;;;;;;;5.32;2.17;;;;;;;21.40;52.90;98293.19;5027600;28;20087;-78
2024/04/06 09:19:33;;;;;;;2.72;1.75;;;;;;;21.48;52.37;98303.41;5000257;28;20706;-78
2024/04/06 09:21:58;;;;;;;2.85;1.40;;;;;;;21.27;47.43;98272.97;4991280;28;20033;-78
2024/04/06 09:24:26;;;;;;;4.55;1.35;;;;;;;21.48;47.41;98288.88;5003763;28;20037;-78
2024/04/06 09:26:52;;;;;;;5.20;1.45;;;;;;;21.60;47.87;98276.25;5012198;28;20036;-78
2024/04/06 09:29:17;;;;;;;1.75;1.50;;;;;;;21.64;47.26;98266.25;4997669;28;20413;-79
2024/04/06 09:31:47;;;;;;;2.88;1.40;;;;;;;21.73;46.01;98289.03;5025302;28;20152;-78
2024/04/06 09:34:14;;;;;;;3.90;1.20;;;;;;;21.76;45.87;98274.72;5017044;28;20467;-78
2024/04/06 09:36:40;;;;;;;3.20;1.63;;;;;;;21.72;46.24;98265.50;4997774;28;20026;-78
2024/04/06 09:39:06;;;;;;;3.97;1.50;;;;;;;21.89;46.16;98268.34;4993755;28;20059;-78
2024/04/06 09:41:33;;;;;;;3.30;1.50;;;;;;;21.94;46.38;98270.97;4993192;28;20056;-78
2024/04/06 09:43:59;;;;;;;3.33;1.90;;;;;;;22.16;45.71;98261.03;5016136;28;20044;-78
2024/04/06 09:46:24;;;;;;;6.05;3.72;;;;;;;22.23;47.07;98250.41;5013525;28;20026;-78
2024/04/06 09:48:51;;;;;;;5.93;4.35;;;;;;;22.06;45.74;98272.28;5029133;28;20055;-78
2024/04/06 09:51:16;;;;;;;5.10;2.45;;;;;;;21.97;46.67;98270.34;5003844;28;20476;-79
2024/04/06 09:53:43;;;;;;;25.63;18.88;;;;;;;22.18;46.34;98267.00;5004346;28;20030;-78
2024/04/06 09:56:09;;;;;;;2.45;1.50;;;;;;;22.17;45.90;98265.41;4990891;28;20071;-78
2024/04/06 09:58:35;;;;;;;7.45;4.75;;;;;;;22.13;45.87;98250.69;5006693;28;20045;-78
2024/04/06 10:01:11;;;;;;;5.60;4.10;;;;;;;22.23;46.05;98259.44;5004968;28;20025;-78
2024/04/06 10:03:42;;;;;;;4.63;2.15;;;;;;;22.26;45.58;98244.28;4988014;28;20041;-78
2024/04/06 10:06:17;;;;;;;2.05;1.42;;;;;;;22.39;45.67;98248.81;5000041;28;20041;-78
2024/04/06 10:08:52;;;;;;;2.35;1.50;;;;;;;22.44;45.19;98254.19;4998144;28;20048;-79
2024/04/06 10:11:19;;;;;;;3.13;1.45;;;;;;;22.40;44.97;98245.78;5004953;28;20041;-78
2024/04/06 10:13:58;;;;;;;3.40;1.50;;;;;;;22.66;45.28;98238.41;5022790;28;20385;-78
2024/04/06 10:16:27;;;;;;;2.60;1.45;;;;;;;22.97;46.08;98253.94;5015207;28;20481;-78
2024/04/06 10:18:56;;;;;;;2.22;1.30;;;;;;;22.90;43.74;98243.44;5006068;28;20049;-78
2024/04/06 10:21:26;;;;;;;3.83;1.40;;;;;;;23.21;45.30;98255.06;4986165;28;20034;-78
2024/04/06 10:23:53;;;;;;;5.07;1.70;;;;;;;23.21;44.19;98240.50;5009827;28;20037;-78
2024/04/06 10:26:20;;;;;;;2.15;1.60;;;;;;;23.04;43.73;98233.09;4999410;28;20027;-78
2024/04/06 10:28:47;;;;;;;4.40;1.42;;;;;;;22.99;44.08;98235.19;4982072;28;20030;-78
2024/04/06 10:31:12;;;;;;;3.13;1.30;;;;;;;23.10;42.07;98226.31;5011255;28;20026;-78
2024/04/06 10:33:38;;;;;;;1.65;1.30;;;;;;;23.38;43.68;98227.56;5028794;28;20045;-78
2024/04/06 10:36:11;;;;;;;1.70;1.40;;;;;;;23.42;42.15;98237.91;4998795;28;20083;-78
2024/04/06 10:38:38;;;;;;;3.50;1.50;;;;;;;23.25;44.12;98239.53;4998632;28;20087;-78
2024/04/06 10:41:04;;;;;;;2.25;1.40;;;;;;;23.09;42.55;98219.19;5014822;28;20021;-78
2024/04/06 10:43:33;;;;;;;3.33;1.13;;;;;;;23.21;42.88;98243.25;4998223;28;20041;-78
2024/04/06 10:45:59;;;;;;;2.20;1.40;;;;;;;23.28;42.95;98232.56;5009429;28;20058;-78
2024/04/06 10:48:25;;;;;;;3.33;1.40;;;;;;;23.51;42.19;98246.94;5018034;28;20030;-78
2024/04/06 10:50:51;;;;;;;2.38;1.30;;;;;;;23.50;41.44;98223.34;4991404;28;20030;-78
2024/04/06 10:53:21;;;;;;;2.40;1.50;;;;;;;23.57;41.78;98216.19;5005172;28;20492;-79
2024/04/06 10:55:47;;;;;;;4.10;1.40;;;;;;;23.49;40.52;98197.78;5001549;28;20084;-79
2024/04/06 10:58:13;;;;;;;2.90;1.17;;;;;;;23.60;40.87;98217.47;4978384;28;20054;-78
2024/04/06 11:00:39;;;;;;;2.20;1.30;;;;;;;23.61;40.60;98213.59;5010813;28;20123;-79
2024/04/06 11:03:10;;;;;;;3.47;1.55;;;;;;;23.75;40.93;98216.97;4997322;28;20037;-78
2024/04/06 11:05:37;;;;;;;1.90;1.30;;;;;;;24.10;40.55;98234.97;5010952;28;20049;-78
2024/04/06 11:08:06;;;;;;;3.05;1.40;;;;;;;24.20;39.84;98239.28;5011991;28;20036;-79
2024/04/06 11:10:32;;;;;;;2.00;1.50;;;;;;;24.23;41.66;98239.41;5008058;28;20087;-78
2024/04/06 11:12:58;;;;;;;2.58;1.63;;;;;;;24.34;39.17;98226.88;4983941;28;20021;-78
2024/04/06 11:15:24;;;;;;;2.05;1.20;;;;;;;24.23;39.53;98220.16;4976580;28;20033;-79
2024/04/06 11:17:50;;;;;;;1.80;1.35;;;;;;;24.05;39.40;98224.09;5027376;28;20017;-79
2024/04/06 11:20:16;;;;;;;1.98;1.30;;;;;;;24.01;38.07;98203.91;5034193;28;20038;-79
2024/04/06 11:22:42;;;;;;;2.58;1.25;;;;;;;24.42;38.70;98215.03;4984827;28;20114;-78
2024/04/06 11:25:21;;;;;;;4.25;1.20;;;;;;;24.49;38.96;98186.94;4999062;28;20556;-79